createdAt,value
2022-09-05T00:00:54.561Z,19.15
2022-09-05T00:01:54.534Z,19.16
2022-09-05T00:02:54.636Z,19.15
2022-09-05T00:03:54.712Z,19.15
2022-09-05T00:04:54.485Z,19.13
2022-09-05T00:06:01.789Z,19.13
2022-09-05T00:06:54.505Z,19.10
2022-09-05T00:07:59.340Z,19.10
2022-09-05T00:08:54.539Z,19.10
2022-09-05T00:09:54.523Z,19.06
2022-09-05T00:11:37.386Z,19.05
2022-09-05T00:11:54.441Z,19.05
2022-09-05T00:13:07.763Z,19.02
2022-09-05T00:13:54.437Z,19.01
2022-09-05T00:15:18.301Z,19.02
2022-09-05T00:15:54.458Z,19.01
2022-09-05T00:16:54.327Z,18.99
2022-09-05T00:19:37.057Z,19.01
2022-09-05T00:25:38.742Z,19.10
2022-09-05T00:26:38.371Z,19.12
2022-09-05T00:27:38.385Z,19.12
2022-09-05T00:28:38.365Z,19.13
2022-09-05T00:31:05.822Z,19.15
2022-09-05T00:31:57.554Z,19.16
2022-09-05T00:32:02.755Z,19.16
2022-09-05T00:33:02.621Z,19.17
2022-09-05T00:34:02.645Z,19.17
2022-09-05T00:35:02.585Z,19.17
2022-09-05T00:36:02.619Z,19.17
2022-09-05T00:37:02.578Z,19.16
2022-09-05T00:38:02.609Z,19.16
2022-09-05T00:39:02.541Z,19.16
2022-09-05T00:40:17.980Z,19.15
2022-09-05T00:41:02.524Z,19.16
2022-09-05T00:42:02.505Z,19.16
2022-09-05T00:43:02.544Z,19.15
2022-09-05T00:44:02.478Z,19.16
2022-09-05T00:45:02.502Z,19.15
2022-09-05T00:46:02.570Z,19.15
2022-09-05T00:47:02.447Z,19.13
2022-09-05T00:48:02.455Z,19.13
2022-09-05T00:49:02.468Z,19.13
2022-09-05T00:50:02.452Z,19.12
2022-09-05T00:51:02.430Z,19.12
2022-09-05T00:52:02.387Z,19.10
2022-09-05T00:53:06.673Z,19.09
2022-09-05T00:54:02.398Z,19.07
2022-09-05T00:55:02.384Z,19.06
2022-09-05T00:56:02.426Z,19.01
2022-09-05T00:57:02.343Z,18.97
2022-09-05T00:58:02.362Z,18.94
2022-09-05T00:59:02.328Z,18.90
2022-09-05T01:00:02.324Z,18.87
2022-09-05T01:01:02.346Z,18.84
2022-09-05T01:02:02.489Z,18.82
2022-09-05T01:03:02.439Z,18.82
2022-09-05T01:04:05.738Z,18.78
2022-09-05T01:05:02.261Z,18.76
2022-09-05T01:06:02.273Z,18.75
2022-09-05T01:07:02.238Z,18.72
2022-09-05T01:08:02.244Z,18.69
2022-09-05T01:09:07.871Z,18.69
2022-09-05T01:10:02.228Z,18.66
2022-09-05T01:11:02.204Z,18.64
2022-09-05T01:12:02.187Z,18.60
2022-09-05T01:13:02.184Z,18.62
2022-09-05T01:14:02.174Z,18.57
2022-09-05T01:15:02.161Z,18.56
2022-09-05T01:16:02.260Z,18.53
2022-09-05T01:17:02.157Z,18.51
2022-09-05T01:18:02.136Z,18.51
2022-09-05T01:19:02.126Z,18.50
2022-09-05T01:20:19.750Z,18.50
2022-09-05T01:21:02.087Z,18.49
2022-09-05T01:22:02.095Z,18.50
2022-09-05T01:23:08.761Z,18.46
2022-09-05T01:24:02.055Z,18.46
2022-09-05T01:25:02.035Z,18.42
2022-09-05T01:26:02.004Z,18.42
2022-09-05T01:27:02.027Z,18.39
2022-09-05T01:29:16.894Z,18.38
2022-09-05T01:29:23.520Z,18.35
2022-09-05T01:30:01.967Z,18.34
2022-09-05T01:31:02.059Z,18.32
2022-09-05T01:32:01.955Z,18.31
2022-09-05T01:33:05.770Z,18.28
2022-09-05T01:34:01.945Z,18.26
2022-09-05T01:35:01.914Z,18.23
2022-09-05T01:36:04.222Z,18.23
2022-09-05T01:37:01.953Z,18.20
2022-09-05T01:38:01.899Z,18.19
2022-09-05T01:40:10.431Z,18.17
2022-09-05T01:40:18.837Z,18.16
2022-09-05T01:41:17.885Z,18.14
2022-09-05T01:42:01.846Z,18.13
2022-09-05T01:43:01.852Z,18.10
2022-09-05T01:44:01.809Z,18.09
2022-09-05T01:45:01.799Z,18.10
2022-09-05T01:46:01.852Z,18.07
2022-09-05T01:47:01.772Z,18.07
2022-09-05T01:48:01.780Z,18.07
2022-09-05T01:49:01.752Z,18.05
2022-09-05T01:50:01.761Z,18.05
2022-09-05T01:51:01.744Z,18.04
2022-09-05T01:52:01.727Z,18.01
2022-09-05T01:53:02.389Z,18.01
2022-09-05T01:54:01.703Z,17.98
2022-09-05T01:55:01.691Z,17.96
2022-09-05T01:56:04.678Z,17.96
2022-09-05T01:57:01.665Z,17.96
2022-09-05T01:58:01.649Z,17.95
2022-09-05T01:59:01.657Z,17.94
2022-09-05T02:00:01.645Z,17.92
2022-09-05T02:01:26.600Z,17.92
2022-09-05T02:02:01.695Z,17.89
2022-09-05T02:03:01.699Z,17.91
2022-09-05T02:04:04.541Z,17.91
2022-09-05T02:05:01.598Z,17.91
2022-09-05T02:06:01.561Z,17.89
2022-09-05T02:07:29.910Z,17.91
2022-09-05T02:08:01.533Z,17.91
2022-09-05T02:09:01.549Z,17.91
2022-09-05T02:10:06.954Z,17.89
2022-09-05T02:11:01.532Z,17.87
2022-09-05T02:12:01.486Z,17.89
2022-09-05T02:13:02.924Z,17.91
2022-09-05T02:14:01.482Z,17.92
2022-09-05T02:15:01.459Z,17.95
2022-09-05T02:16:01.508Z,17.95
2022-09-05T02:17:01.451Z,17.95
2022-09-05T02:18:01.420Z,17.95
2022-09-05T02:19:01.557Z,17.96
2022-09-05T02:20:01.462Z,17.95
2022-09-05T02:21:01.379Z,17.95
2022-09-05T02:22:01.377Z,17.96
2022-09-05T02:23:01.364Z,17.94
2022-09-05T02:24:01.345Z,17.95
2022-09-05T02:26:00.289Z,17.96
2022-09-05T02:26:05.549Z,17.95
2022-09-05T02:27:01.367Z,17.94
2022-09-05T02:28:05.891Z,17.95
2022-09-05T02:29:01.298Z,17.96
2022-09-05T02:30:01.309Z,17.96
2022-09-05T02:31:19.730Z,17.96
2022-09-05T02:32:01.267Z,17.96
2022-09-05T02:33:01.270Z,17.95
2022-09-05T02:34:02.379Z,17.94
2022-09-05T02:35:01.263Z,17.94
2022-09-05T02:36:01.242Z,17.95
2022-09-05T02:37:01.197Z,17.96
2022-09-05T02:38:51.068Z,17.96
2022-09-05T02:45:11.901Z,17.95
2022-09-05T02:45:28.448Z,17.89
2022-09-05T02:45:34.153Z,17.87
2022-09-05T02:46:33.821Z,17.84
2022-09-05T02:47:33.719Z,17.86
2022-09-05T02:48:33.689Z,17.84
2022-09-05T02:50:53.037Z,17.80
2022-09-05T02:57:32.962Z,17.80
2022-09-05T02:58:05.567Z,17.76
2022-09-05T02:58:13.059Z,17.73
2022-09-05T02:59:10.505Z,17.70
2022-09-05T03:00:01.945Z,17.65
2022-09-05T03:01:01.965Z,17.63
2022-09-05T03:02:02.025Z,17.63
2022-09-05T03:03:01.940Z,17.63
2022-09-05T03:04:01.886Z,17.63
2022-09-05T03:05:04.714Z,17.62
2022-09-05T03:06:02.094Z,17.58
2022-09-05T03:07:01.850Z,17.57
2022-09-05T03:08:01.849Z,17.55
2022-09-05T03:09:09.979Z,17.54
2022-09-05T03:10:01.866Z,17.51
2022-09-05T03:11:01.804Z,17.49
2022-09-05T03:12:03.029Z,17.47
2022-09-05T03:13:01.776Z,17.47
2022-09-05T03:14:01.783Z,17.45
2022-09-05T03:15:01.761Z,17.45
2022-09-05T03:16:04.687Z,17.42
2022-09-05T03:17:01.809Z,17.39
2022-09-05T03:18:20.319Z,17.39
2022-09-05T03:19:01.721Z,17.38
2022-09-05T03:20:01.701Z,17.38
2022-09-05T03:21:09.626Z,17.36
2022-09-05T03:22:01.691Z,17.35
2022-09-05T03:23:01.683Z,17.28
2022-09-05T03:24:01.654Z,17.27
2022-09-05T03:25:01.656Z,17.25
2022-09-05T03:26:01.629Z,17.21
2022-09-05T03:27:01.639Z,17.21
2022-09-05T03:28:01.631Z,17.20
2022-09-05T03:29:01.642Z,17.17
2022-09-05T03:30:01.611Z,17.15
2022-09-05T03:31:01.714Z,17.17
2022-09-05T03:32:01.563Z,17.15
2022-09-05T03:33:01.553Z,17.12
2022-09-05T03:34:01.605Z,17.12
2022-09-05T03:35:04.097Z,17.10
2022-09-05T03:36:01.523Z,17.12
2022-09-05T03:37:01.543Z,17.09
2022-09-05T03:38:01.503Z,17.07
2022-09-05T03:39:01.503Z,17.09
2022-09-05T03:40:15.421Z,17.09
2022-09-05T03:41:01.464Z,17.07
2022-09-05T03:42:01.448Z,17.05
2022-09-05T03:43:01.438Z,17.02
2022-09-05T03:44:01.469Z,17.02
2022-09-05T03:45:01.412Z,17.00
2022-09-05T03:46:01.485Z,17.00
2022-09-05T03:47:01.419Z,17.00
2022-09-05T03:48:02.371Z,16.96
2022-09-05T03:49:14.898Z,16.98
2022-09-05T03:57:13.877Z,16.95
2022-09-05T03:57:41.628Z,16.90
2022-09-05T03:57:47.503Z,16.87
2022-09-05T03:58:56.015Z,16.85
2022-09-05T03:59:38.022Z,16.84
2022-09-05T04:00:36.655Z,16.82
2022-09-05T04:03:15.876Z,16.84
2022-09-05T04:08:32.252Z,16.84
2022-09-05T04:08:43.240Z,16.80
2022-09-05T04:09:49.314Z,16.80
2022-09-05T04:10:27.728Z,16.78
2022-09-05T04:11:27.593Z,16.78
2022-09-05T04:12:27.591Z,16.77
2022-09-05T04:13:27.591Z,16.78
2022-09-05T04:14:27.560Z,16.75
2022-09-05T04:15:27.549Z,16.75
2022-09-05T04:16:27.620Z,16.72
2022-09-05T04:17:27.513Z,16.72
2022-09-05T04:18:33.113Z,16.73
2022-09-05T04:19:27.516Z,16.72
2022-09-05T04:20:27.480Z,16.72
2022-09-05T04:21:27.481Z,16.72
2022-09-05T04:22:27.478Z,16.70
2022-09-05T04:23:27.475Z,16.69
2022-09-05T04:24:27.458Z,16.69
2022-09-05T04:25:27.449Z,16.72
2022-09-05T04:26:27.413Z,16.70
2022-09-05T04:27:28.028Z,16.69
2022-09-05T04:28:27.430Z,16.67
2022-09-05T04:29:27.402Z,16.67
2022-09-05T04:30:37.896Z,16.67
2022-09-05T04:31:27.439Z,16.67
2022-09-05T04:32:27.393Z,16.67
2022-09-05T04:33:35.918Z,16.67
2022-09-05T04:34:27.328Z,16.67
2022-09-05T04:35:27.314Z,16.67
2022-09-05T04:36:27.337Z,16.69
2022-09-05T04:37:27.306Z,16.67
2022-09-05T04:38:27.325Z,16.69
2022-09-05T04:39:27.399Z,16.66
2022-09-05T04:40:30.950Z,16.66
2022-09-05T04:41:37.639Z,16.65
2022-09-05T04:42:27.249Z,16.63
2022-09-05T04:43:27.272Z,16.65
2022-09-05T04:44:27.227Z,16.65
2022-09-05T04:45:27.202Z,16.65
2022-09-05T04:46:27.261Z,16.66
2022-09-05T04:47:27.250Z,16.65
2022-09-05T04:48:27.352Z,16.66
2022-09-05T04:49:27.155Z,16.66
2022-09-05T04:50:27.167Z,16.66
2022-09-05T04:51:27.136Z,16.67
2022-09-05T04:52:31.565Z,16.67
2022-09-05T04:53:27.145Z,16.69
2022-09-05T04:54:30.001Z,16.69
2022-09-05T04:55:27.115Z,16.69
2022-09-05T04:56:27.105Z,16.70
2022-09-05T04:57:27.088Z,16.70
2022-09-05T04:58:36.443Z,16.72
2022-09-05T05:05:58.241Z,16.73
2022-09-05T05:06:38.355Z,16.73
2022-09-05T05:06:49.148Z,16.84
2022-09-05T05:07:35.326Z,16.85
2022-09-05T05:08:38.716Z,16.90
2022-09-05T05:09:35.165Z,16.92
2022-09-05T05:14:10.815Z,16.92
2022-09-05T05:18:39.994Z,16.96
2022-09-05T05:19:03.063Z,17.07
2022-09-05T05:19:21.588Z,17.09
2022-09-05T05:20:41.877Z,17.10
2022-09-05T05:21:19.009Z,17.12
2022-09-05T05:22:18.976Z,17.15
2022-09-05T05:23:19.123Z,17.18
2022-09-05T05:24:21.649Z,17.20
2022-09-05T05:25:18.947Z,17.22
2022-09-05T05:26:19.006Z,17.24
2022-09-05T05:27:18.942Z,17.25
2022-09-05T05:28:24.872Z,17.28
2022-09-05T05:29:19.671Z,17.32
2022-09-05T05:30:18.915Z,17.35
2022-09-05T05:31:18.932Z,17.35
2022-09-05T05:32:24.841Z,17.38
2022-09-05T05:33:18.877Z,17.39
2022-09-05T05:34:24.392Z,17.40
2022-09-05T05:35:18.846Z,17.45
2022-09-05T05:36:18.816Z,17.46
2022-09-05T05:37:18.816Z,17.45
2022-09-05T05:38:18.828Z,17.47
2022-09-05T05:39:18.823Z,17.51
2022-09-05T05:40:18.768Z,17.53
2022-09-05T05:41:18.774Z,17.54
2022-09-05T05:42:20.735Z,17.54
2022-09-05T05:43:18.746Z,17.57
2022-09-05T05:44:18.757Z,17.57
2022-09-05T05:45:18.714Z,17.58
2022-09-05T05:46:18.756Z,17.60
2022-09-05T05:47:18.699Z,17.62
2022-09-05T05:48:18.690Z,17.63
2022-09-05T05:49:18.706Z,17.62
2022-09-05T05:50:18.719Z,17.62
2022-09-05T05:51:18.663Z,17.65
2022-09-05T05:52:18.645Z,17.63
2022-09-05T05:53:36.798Z,17.65
2022-09-05T05:54:18.726Z,17.65
2022-09-05T05:55:51.695Z,17.66
2022-09-05T05:56:18.618Z,17.68
2022-09-05T05:57:18.678Z,17.68
2022-09-05T05:58:18.657Z,17.70
2022-09-05T05:59:22.633Z,17.70
2022-09-05T06:00:24.566Z,17.71
2022-09-05T06:01:27.353Z,17.70
2022-09-05T06:02:18.660Z,17.68
2022-09-05T06:03:26.186Z,17.71
2022-09-05T06:04:18.564Z,17.70
2022-09-05T06:05:18.525Z,17.71
2022-09-05T06:06:18.539Z,17.73
2022-09-05T06:07:18.466Z,17.74
2022-09-05T06:10:24.281Z,17.76
2022-09-05T06:15:10.569Z,17.79
2022-09-05T06:15:22.481Z,17.92
2022-09-05T06:16:08.121Z,17.99
2022-09-05T06:17:08.059Z,18.07
2022-09-05T06:18:08.042Z,18.10
2022-09-05T06:19:08.048Z,18.13
2022-09-05T06:22:04.002Z,18.16
2022-09-05T06:22:20.589Z,18.20
2022-09-05T06:22:26.248Z,18.31
2022-09-05T06:23:38.703Z,18.36
2022-09-05T06:24:26.209Z,18.36
2022-09-05T06:25:26.192Z,18.38
2022-09-05T06:26:26.182Z,18.41
2022-09-05T06:27:26.226Z,18.42
2022-09-05T06:28:26.193Z,18.42
2022-09-05T06:29:34.250Z,18.46
2022-09-05T06:30:26.228Z,18.50
2022-09-05T06:31:31.462Z,18.53
2022-09-05T06:32:26.127Z,18.59
2022-09-05T06:33:26.319Z,18.62
2022-09-05T06:34:32.580Z,18.66
2022-09-05T06:35:26.100Z,18.71
2022-09-05T06:36:26.077Z,18.75
2022-09-05T06:37:26.059Z,18.79
2022-09-05T06:38:26.083Z,18.86
2022-09-05T06:39:26.119Z,18.90
2022-09-05T06:40:29.157Z,18.94
2022-09-05T06:41:26.047Z,19.02
2022-09-05T06:42:39.118Z,19.10
2022-09-05T06:43:26.295Z,19.17
2022-09-05T06:44:26.110Z,19.24
2022-09-05T06:45:28.274Z,19.24
2022-09-05T06:46:54.815Z,19.28
2022-09-05T06:47:34.110Z,19.30
2022-09-05T06:48:44.181Z,19.35
2022-09-05T06:49:32.242Z,19.45
2022-09-05T06:50:27.347Z,19.49
2022-09-05T06:51:25.931Z,19.53
2022-09-05T06:52:29.230Z,19.61
2022-09-05T06:53:25.890Z,19.70
2022-09-05T06:54:25.884Z,19.78
2022-09-05T06:55:25.865Z,19.87
2022-09-05T06:56:26.628Z,19.95
2022-09-05T06:57:25.884Z,20.02
2022-09-05T06:58:25.874Z,20.10
2022-09-05T06:59:25.813Z,20.17
2022-09-05T07:00:25.799Z,20.23
2022-09-05T07:01:25.984Z,20.27
2022-09-05T07:02:58.215Z,20.26
2022-09-05T07:03:26.306Z,20.31
2022-09-05T07:05:24.407Z,20.33
2022-09-05T07:05:45.330Z,20.34
2022-09-05T07:06:48.103Z,20.38
2022-09-05T07:07:27.587Z,20.41
2022-09-05T07:08:34.751Z,20.42
2022-09-05T07:09:28.426Z,20.50
2022-09-05T07:10:38.571Z,20.58
2022-09-05T07:11:25.692Z,20.61
2022-09-05T07:12:25.661Z,20.64
2022-09-05T07:13:25.840Z,20.73
2022-09-05T07:14:25.647Z,20.81
2022-09-05T07:15:25.636Z,20.85
2022-09-05T07:16:29.955Z,20.93
2022-09-05T07:17:25.612Z,20.96
2022-09-05T07:18:25.625Z,21.03
2022-09-05T07:19:25.592Z,21.05
2022-09-05T07:20:25.639Z,21.09
2022-09-05T07:21:26.292Z,21.12
2022-09-05T07:22:46.109Z,21.18
2022-09-05T07:24:06.190Z,21.19
2022-09-05T07:24:50.283Z,21.24
2022-09-05T07:25:26.256Z,21.33
2022-09-05T07:26:52.187Z,21.36
2022-09-05T07:27:25.605Z,21.43
2022-09-05T07:28:28.461Z,21.51
2022-09-05T07:29:25.494Z,21.58
2022-09-05T07:30:25.497Z,21.63
2022-09-05T07:31:26.475Z,21.67
2022-09-05T07:32:25.495Z,21.73
2022-09-05T07:33:25.580Z,21.82
2022-09-05T07:34:25.423Z,21.90
2022-09-05T07:35:25.448Z,21.94
2022-09-05T07:36:25.402Z,22.01
2022-09-05T07:37:25.393Z,22.12
2022-09-05T07:38:32.654Z,22.23
2022-09-05T07:39:29.108Z,22.29
2022-09-05T07:40:26.840Z,22.33
2022-09-05T07:41:25.363Z,22.44
2022-09-05T07:42:25.338Z,22.51
2022-09-05T07:43:25.340Z,22.59
2022-09-05T07:44:25.311Z,22.60
2022-09-05T07:45:25.361Z,22.64
2022-09-05T07:46:25.321Z,22.70
2022-09-05T07:47:25.285Z,22.79
2022-09-05T07:48:34.657Z,22.88
2022-09-05T07:49:25.274Z,22.91
2022-09-05T07:55:13.760Z,22.97
2022-09-05T07:57:29.947Z,23.01
2022-09-05T07:57:52.164Z,23.31
2022-09-05T07:58:12.803Z,23.38
2022-09-05T07:59:12.798Z,23.44
2022-09-05T08:00:26.220Z,23.52
2022-09-05T08:01:12.938Z,23.60
2022-09-05T08:02:12.759Z,23.67
2022-09-05T08:03:12.752Z,23.68
2022-09-05T08:04:12.780Z,23.72
2022-09-05T08:05:12.818Z,23.75
2022-09-05T08:06:12.718Z,23.86
2022-09-05T08:07:45.767Z,23.94
2022-09-05T08:08:12.687Z,24.05
2022-09-05T08:09:59.570Z,24.08
2022-09-05T08:10:15.634Z,24.09
2022-09-05T08:11:24.808Z,24.16
2022-09-05T08:12:16.052Z,24.16
2022-09-05T08:13:24.788Z,24.19
2022-09-05T08:14:44.102Z,24.27
2022-09-05T08:15:14.077Z,24.21
2022-09-05T08:16:13.989Z,24.27
2022-09-05T08:17:12.588Z,24.31
2022-09-05T08:18:12.597Z,24.33
2022-09-05T08:19:12.555Z,24.36
2022-09-05T08:20:12.552Z,24.34
2022-09-05T08:21:12.634Z,24.39
2022-09-05T08:22:12.607Z,24.45
2022-09-05T08:23:12.560Z,24.48
2022-09-05T08:24:13.624Z,24.49
2022-09-05T08:25:12.513Z,24.51
2022-09-05T08:26:12.486Z,24.55
2022-09-05T08:27:15.960Z,24.59
2022-09-05T08:28:12.532Z,24.70
2022-09-05T08:29:12.445Z,24.84
2022-09-05T08:30:25.038Z,24.94
2022-09-05T08:31:12.483Z,25.05
2022-09-05T08:32:12.406Z,25.11
2022-09-05T08:33:12.406Z,25.16
2022-09-05T08:34:12.444Z,25.20
2022-09-05T08:35:12.377Z,25.23
2022-09-05T08:36:12.395Z,25.08
2022-09-05T08:37:12.418Z,25.04
2022-09-05T08:38:12.350Z,25.05
2022-09-05T08:39:12.351Z,25.12
2022-09-05T08:40:12.531Z,25.22
2022-09-05T08:41:12.319Z,25.26
2022-09-05T08:42:12.311Z,25.36
2022-09-05T08:46:37.434Z,25.44
2022-09-05T08:46:53.374Z,25.48
2022-09-05T08:46:59.209Z,25.64
2022-09-05T08:47:58.677Z,25.72
2022-09-05T08:48:58.597Z,25.75
2022-09-05T08:49:58.592Z,25.64
2022-09-05T08:50:58.546Z,25.71
2022-09-05T08:51:58.543Z,25.71
2022-09-05T08:52:58.530Z,25.64
2022-09-05T08:53:58.510Z,25.56
2022-09-05T08:55:06.212Z,25.61
2022-09-05T08:55:58.512Z,25.66
2022-09-05T08:56:58.485Z,25.71
2022-09-05T08:57:58.467Z,25.79
2022-09-05T08:59:28.367Z,25.79
2022-09-05T09:00:19.129Z,25.85
2022-09-05T09:01:03.031Z,25.86
2022-09-05T09:02:14.616Z,25.94
2022-09-05T09:03:03.934Z,26.01
2022-09-05T09:03:58.488Z,26.13
2022-09-05T09:05:01.287Z,26.23
2022-09-05T09:06:13.759Z,26.17
2022-09-05T09:07:45.035Z,26.21
2022-09-05T09:07:58.371Z,26.24
2022-09-05T09:09:02.127Z,26.28
2022-09-05T09:09:58.339Z,26.38
2022-09-05T09:10:58.323Z,26.46
2022-09-05T09:11:58.330Z,26.53
2022-09-05T09:12:58.299Z,26.64
2022-09-05T09:13:58.318Z,26.69
2022-09-05T09:14:58.287Z,26.75
2022-09-05T09:15:58.367Z,26.73
2022-09-05T09:16:58.280Z,26.65
2022-09-05T09:17:58.270Z,26.69
2022-09-05T09:18:58.280Z,26.75
2022-09-05T09:19:58.220Z,26.88
2022-09-05T09:20:58.230Z,27.01
2022-09-05T09:21:58.313Z,27.02
2022-09-05T09:22:58.193Z,26.96
2022-09-05T09:23:58.203Z,26.94
2022-09-05T09:25:14.739Z,27.01
2022-09-05T09:25:58.242Z,27.06
2022-09-05T09:26:58.171Z,27.16
2022-09-05T09:28:48.538Z,27.25
2022-09-05T09:28:58.188Z,27.28
2022-09-05T09:29:58.126Z,27.23
2022-09-05T09:30:58.218Z,27.28
2022-09-05T09:31:58.113Z,27.39
2022-09-05T09:32:59.529Z,27.46
2022-09-05T09:33:58.144Z,27.43
2022-09-05T09:34:58.071Z,27.49
2022-09-05T09:35:58.086Z,27.28
2022-09-05T09:36:58.081Z,27.42
2022-09-05T09:37:59.572Z,27.50
2022-09-05T09:38:58.053Z,27.43
2022-09-05T09:39:58.053Z,27.50
2022-09-05T09:41:02.233Z,27.58
2022-09-05T09:41:58.005Z,27.55
2022-09-05T09:42:58.015Z,27.53
2022-09-05T09:43:57.996Z,27.48
2022-09-05T09:44:57.961Z,27.42
2022-09-05T09:45:57.949Z,27.55
2022-09-05T09:46:58.019Z,27.72
2022-09-05T09:47:57.939Z,27.74
2022-09-05T09:48:57.921Z,27.80
2022-09-05T09:49:57.940Z,27.93
2022-09-05T09:50:58.524Z,28.08
2022-09-05T09:51:57.877Z,28.08
2022-09-05T09:52:57.879Z,28.17
2022-09-05T09:53:57.901Z,28.09
2022-09-05T09:54:57.859Z,27.99
2022-09-05T09:55:57.818Z,28.14
2022-09-05T09:56:57.819Z,28.32
2022-09-05T09:57:58.944Z,28.43
2022-09-05T09:58:57.826Z,28.32
2022-09-05T09:59:57.787Z,28.43
2022-09-05T10:00:57.763Z,28.60
2022-09-05T10:02:21.983Z,28.76
2022-09-05T10:10:34.784Z,28.85
2022-09-05T10:11:42.702Z,28.91
2022-09-05T10:11:54.929Z,28.80
2022-09-05T10:12:11.211Z,28.85
2022-09-05T10:13:11.089Z,28.92
2022-09-05T10:14:36.799Z,28.95
2022-09-05T10:15:30.850Z,29.02
2022-09-05T10:16:11.107Z,28.97
2022-09-05T10:17:11.037Z,28.98
2022-09-05T10:18:11.029Z,29.12
2022-09-05T10:19:11.019Z,29.29
2022-09-05T10:20:11.857Z,29.39
2022-09-05T10:21:16.306Z,29.41
2022-09-05T10:23:10.969Z,29.11
2022-09-05T10:24:11.011Z,28.97
2022-09-05T10:25:18.948Z,29.02
2022-09-05T10:26:10.930Z,29.17
2022-09-05T10:27:10.918Z,29.25
2022-09-05T10:28:10.914Z,29.21
2022-09-05T10:29:34.928Z,29.05
2022-09-05T10:30:10.887Z,29.12
2022-09-05T10:32:53.645Z,29.33
2022-09-05T10:35:23.789Z,29.52
2022-09-05T10:35:29.572Z,29.78
2022-09-05T10:36:27.318Z,29.84
2022-09-05T10:37:27.220Z,29.58
2022-09-05T10:38:27.261Z,29.63
2022-09-05T10:39:27.575Z,29.71
2022-09-05T10:40:27.172Z,29.85
2022-09-05T10:41:27.173Z,29.79
2022-09-05T10:42:27.146Z,29.73
2022-09-05T10:43:27.166Z,29.57
2022-09-05T10:44:27.139Z,29.63
2022-09-05T10:45:38.136Z,29.64
2022-09-05T10:46:50.320Z,29.52
2022-09-05T10:47:27.193Z,29.69
2022-09-05T10:48:27.149Z,29.66
2022-09-05T10:49:30.370Z,29.57
2022-09-05T10:50:27.073Z,29.48
2022-09-05T10:51:28.303Z,29.42
2022-09-05T10:52:27.050Z,29.32
2022-09-05T10:53:28.391Z,29.17
2022-09-05T10:54:27.043Z,29.11
2022-09-05T10:55:27.022Z,29.08
2022-09-05T10:56:28.547Z,29.00
2022-09-05T10:57:27.024Z,28.88
2022-09-05T10:58:50.775Z,29.02
2022-09-05T11:02:36.734Z,29.08
2022-09-05T11:02:48.321Z,29.45
2022-09-05T11:03:40.269Z,29.51
2022-09-05T11:04:49.954Z,29.57
2022-09-05T11:05:40.204Z,29.76
2022-09-05T11:06:40.135Z,29.82
2022-09-05T11:07:40.127Z,29.78
2022-09-05T11:08:40.122Z,29.82
2022-09-05T11:09:40.124Z,29.89
2022-09-05T11:10:40.079Z,29.85
2022-09-05T11:11:40.066Z,29.85
2022-09-05T11:12:40.089Z,29.78
2022-09-05T11:13:40.097Z,29.69
2022-09-05T11:14:40.045Z,29.55
2022-09-05T11:15:45.790Z,29.36
2022-09-05T11:16:40.179Z,29.33
2022-09-05T11:17:40.015Z,29.35
2022-09-05T11:18:55.148Z,29.18
2022-09-05T11:19:40.001Z,29.10
2022-09-05T11:20:39.996Z,28.94
2022-09-05T11:21:39.981Z,28.94
2022-09-05T11:22:39.964Z,29.05
2022-09-05T11:23:39.973Z,29.03
2022-09-05T11:24:39.937Z,29.10
2022-09-05T11:25:41.299Z,29.10
2022-09-05T11:26:39.951Z,29.11
2022-09-05T11:27:39.903Z,28.98
2022-09-05T11:28:50.702Z,29.07
2022-09-05T11:29:39.910Z,28.98
2022-09-05T11:30:39.871Z,29.05
2022-09-05T11:32:04.275Z,29.21
2022-09-05T11:39:46.113Z,29.48
2022-09-05T11:40:30.199Z,29.85
2022-09-05T11:41:00.271Z,30.98
2022-09-05T11:41:17.074Z,30.81
2022-09-05T11:42:16.495Z,30.93
2022-09-05T11:43:16.379Z,31.00
2022-09-05T11:44:26.286Z,30.94
2022-09-05T11:45:16.347Z,31.00
2022-09-05T11:46:16.415Z,31.07
2022-09-05T11:47:29.729Z,31.10
2022-09-05T11:48:16.324Z,31.18
2022-09-05T11:49:16.359Z,31.00
2022-09-05T11:50:16.286Z,30.91
2022-09-05T11:51:16.309Z,31.01
2022-09-05T11:52:16.288Z,31.20
2022-09-05T11:53:16.258Z,31.47
2022-09-05T11:54:16.271Z,31.64
2022-09-05T11:55:21.059Z,31.56
2022-09-05T11:56:16.262Z,31.67
2022-09-05T11:57:33.638Z,31.42
2022-09-05T11:58:45.142Z,31.15
2022-09-05T11:59:16.229Z,31.18
2022-09-05T12:00:31.745Z,31.23
2022-09-05T12:01:41.659Z,31.35
2022-09-05T12:02:16.762Z,31.40
2022-09-05T12:42:11.535Z,31.57
2022-09-05T12:42:30.843Z,31.68
2022-09-05T12:43:57.397Z,31.79
2022-09-05T12:44:46.480Z,31.82
2022-09-05T12:44:55.846Z,31.91
2022-09-05T12:46:55.028Z,31.94
2022-09-05T12:47:55.019Z,31.79
2022-09-05T12:48:55.060Z,31.67
2022-09-05T12:49:55.025Z,31.60
2022-09-05T12:50:55.000Z,31.75
2022-09-05T12:51:54.985Z,31.85
2022-09-05T12:52:54.958Z,32.05
2022-09-05T12:53:54.962Z,32.24
2022-09-05T12:54:57.022Z,32.39
2022-09-05T12:56:54.235Z,32.16
2022-09-05T13:03:40.596Z,32.19
2022-09-05T13:04:16.622Z,31.76
2022-09-05T13:04:26.889Z,31.88
2022-09-05T13:05:14.244Z,32.02
2022-09-05T13:06:14.135Z,32.12
2022-09-05T13:07:14.107Z,32.16
2022-09-05T13:08:14.138Z,32.29
2022-09-05T13:09:14.091Z,32.39
2022-09-05T13:13:40.971Z,32.53
2022-09-05T13:15:14.115Z,32.50
2022-09-05T13:15:26.751Z,32.69
2022-09-05T13:16:06.470Z,32.53
2022-09-05T13:17:06.487Z,32.43
2022-09-05T13:18:06.472Z,32.40
2022-09-05T13:19:06.448Z,32.29
2022-09-05T13:20:06.454Z,32.34
2022-09-05T13:21:06.391Z,32.40
2022-09-05T13:22:06.415Z,32.56
2022-09-05T13:23:06.441Z,32.58
2022-09-05T13:24:06.376Z,32.53
2022-09-05T13:25:06.342Z,32.62
2022-09-05T13:26:06.348Z,32.61
2022-09-05T13:27:06.352Z,32.63
2022-09-05T13:28:06.315Z,32.35
2022-09-05T13:29:10.631Z,32.36
2022-09-05T13:32:08.901Z,32.31
2022-09-05T13:38:37.742Z,32.10
2022-09-05T13:38:47.583Z,32.16
2022-09-05T13:39:12.399Z,32.05
2022-09-05T13:40:12.415Z,32.29
2022-09-05T13:41:27.341Z,32.44
2022-09-05T13:42:12.274Z,32.49
2022-09-05T13:43:12.289Z,32.69
2022-09-05T13:44:26.855Z,32.51
2022-09-05T13:45:12.254Z,32.25
2022-09-05T13:46:12.277Z,32.13
2022-09-05T13:47:29.319Z,32.17
2022-09-05T13:48:12.224Z,32.34
2022-09-05T13:49:31.327Z,32.16
2022-09-05T13:50:12.248Z,32.06
2022-09-05T13:51:12.168Z,32.13
2022-09-05T13:52:12.205Z,32.05
2022-09-05T13:53:15.299Z,31.90
2022-09-05T13:54:12.174Z,31.45
2022-09-05T13:55:12.149Z,31.23
2022-09-05T13:56:12.137Z,31.18
2022-09-05T13:57:12.132Z,31.18
2022-09-05T13:58:12.117Z,31.42
2022-09-05T13:59:12.119Z,31.46
2022-09-05T14:00:27.088Z,31.38
2022-09-05T14:01:12.164Z,31.67
2022-09-05T14:02:26.258Z,31.87
2022-09-05T14:04:12.624Z,32.40
2022-09-05T14:05:17.715Z,32.56
2022-09-05T14:06:46.215Z,32.46
2022-09-05T14:08:12.005Z,32.59
2022-09-05T14:10:11.981Z,32.12
2022-09-05T14:11:11.981Z,31.74
2022-09-05T14:12:11.952Z,31.71
2022-09-05T14:13:11.934Z,31.56
2022-09-05T14:14:11.952Z,31.57
2022-09-05T14:15:13.946Z,31.62
2022-09-05T14:16:11.920Z,31.75
2022-09-05T14:18:20.274Z,32.32
2022-09-05T14:19:11.912Z,32.35
2022-09-05T14:20:11.951Z,32.53
2022-09-05T14:21:11.854Z,32.69
2022-09-05T14:22:11.858Z,32.54
2022-09-05T14:23:11.912Z,32.72
2022-09-05T14:24:12.482Z,32.87
2022-09-05T14:25:11.821Z,32.98
2022-09-05T14:26:14.880Z,32.73
2022-09-05T14:27:11.814Z,32.71
2022-09-05T14:28:11.800Z,32.80
2022-09-05T14:29:11.828Z,32.88
2022-09-05T14:31:03.114Z,32.93
2022-09-05T14:37:41.495Z,32.98
2022-09-05T14:38:09.637Z,32.47
2022-09-05T14:38:18.664Z,32.31
2022-09-05T14:39:14.372Z,32.16
2022-09-05T14:40:29.249Z,32.22
2022-09-05T14:41:12.002Z,32.34
2022-09-05T14:42:12.020Z,32.51
2022-09-05T14:43:11.948Z,32.39
2022-09-05T14:44:12.000Z,32.17
2022-09-05T14:45:11.943Z,32.09
2022-09-05T14:46:11.986Z,32.02
2022-09-05T14:47:34.682Z,32.06
2022-09-05T14:48:13.318Z,32.25
2022-09-05T14:49:11.931Z,32.40
2022-09-05T14:50:17.528Z,32.51
2022-09-05T14:51:14.747Z,32.56
2022-09-05T14:52:12.931Z,32.66
2022-09-05T14:54:11.984Z,33.03
2022-09-05T14:57:23.046Z,33.17
2022-09-05T15:03:00.554Z,33.22
2022-09-05T15:03:08.574Z,32.21
2022-09-05T15:04:55.070Z,32.47
2022-09-05T15:05:55.056Z,32.21
2022-09-05T15:06:55.025Z,32.09
2022-09-05T15:07:55.302Z,32.25
2022-09-05T15:12:14.065Z,32.41
2022-09-05T15:12:38.589Z,32.34